sensor_id;sensor_type;location;lat;lon;timestamp;pressure;altitude;pressure_sealevel;temperature;humidity
55424;BME280;41294;42.666;23.350;2023-04-21T00:00:43;94534.44;;;12.21;72.43
55424;BME280;41294;42.666;23.350;2023-04-21T00:03:09;94530.34;;;12.20;72.47
55424;BME280;41294;42.666;23.350;2023-04-21T00:05:34;94540.63;;;12.18;72.73
55424;BME280;41294;42.666;23.350;2023-04-21T00:07:59;94534.34;;;12.16;72.29
55424;BME280;41294;42.666;23.350;2023-04-21T00:10:25;94529.00;;;12.10;72.51
55424;BME280;41294;42.666;23.350;2023-04-21T00:12:50;94529.00;;;12.10;72.57
55424;BME280;41294;42.666;23.350;2023-04-21T00:15:15;94530.25;;;12.00;72.92
55424;BME280;41294;42.666;23.350;2023-04-21T00:17:41;94529.09;;;12.01;72.67
55424;BME280;41294;42.666;23.350;2023-04-21T00:20:07;94531.09;;;12.06;72.78
55424;BME280;41294;42.666;23.350;2023-04-21T00:22:34;94526.53;;;12.07;72.71
55424;BME280;41294;42.666;23.350;2023-04-21T00:25:00;94528.81;;;11.99;73.23
55424;BME280;41294;42.666;23.350;2023-04-21T00:27:25;94519.72;;;12.00;72.82
55424;BME280;41294;42.666;23.350;2023-04-21T00:29:50;94530.44;;;11.97;73.29
55424;BME280;41294;42.666;23.350;2023-04-21T00:32:16;94531.63;;;11.96;73.13
55424;BME280;41294;42.666;23.350;2023-04-21T00:34:41;94531.00;;;12.01;72.48
55424;BME280;41294;42.666;23.350;2023-04-21T00:37:07;94535.25;;;11.98;72.44
55424;BME280;41294;42.666;23.350;2023-04-21T00:39:32;94540.53;;;11.98;72.87
55424;BME280;41294;42.666;23.350;2023-04-21T00:41:57;94535.81;;;11.88;73.03
55424;BME280;41294;42.666;23.350;2023-04-21T00:44:23;94533.34;;;11.84;73.07
55424;BME280;41294;42.666;23.350;2023-04-21T00:46:48;94526.91;;;11.85;73.04
55424;BME280;41294;42.666;23.350;2023-04-21T00:49:14;94525.72;;;11.86;72.89
55424;BME280;41294;42.666;23.350;2023-04-21T00:51:39;94525.53;;;11.75;72.61
55424;BME280;41294;42.666;23.350;2023-04-21T00:54:06;94525.16;;;11.82;72.83
55424;BME280;41294;42.666;23.350;2023-04-21T00:56:34;94517.53;;;11.84;72.76
55424;BME280;41294;42.666;23.350;2023-04-21T00:59:00;94514.63;;;11.82;72.58
55424;BME280;41294;42.666;23.350;2023-04-21T01:01:30;94528.09;;;11.84;72.20
55424;BME280;41294;42.666;23.350;2023-04-21T01:04:00;94525.25;;;11.73;72.64
55424;BME280;41294;42.666;23.350;2023-04-21T01:06:30;94520.81;;;11.79;72.56
55424;BME280;41294;42.666;23.350;2023-04-21T01:08:56;94524.63;;;11.64;73.45
55424;BME280;41294;42.666;23.350;2023-04-21T01:11:22;94520.88;;;11.56;73.42
55424;BME280;41294;42.666;23.350;2023-04-21T01:13:47;94523.81;;;11.58;74.22
55424;BME280;41294;42.666;23.350;2023-04-21T01:16:16;94516.22;;;11.51;74.57
55424;BME280;41294;42.666;23.350;2023-04-21T01:18:43;94518.19;;;11.42;74.92
55424;BME280;41294;42.666;23.350;2023-04-21T01:21:08;94510.56;;;11.44;74.78
55424;BME280;41294;42.666;23.350;2023-04-21T01:23:35;94511.66;;;11.37;74.65
55424;BME280;41294;42.666;23.350;2023-04-21T01:26:00;94516.00;;;11.26;75.42
55424;BME280;41294;42.666;23.350;2023-04-21T01:28:26;94515.44;;;11.22;75.39
55424;BME280;41294;42.666;23.350;2023-04-21T01:30:51;94506.56;;;11.34;75.05
55424;BME280;41294;42.666;23.350;2023-04-21T01:33:18;94512.53;;;11.34;74.72
55424;BME280;41294;42.666;23.350;2023-04-21T01:35:44;94514.00;;;11.35;74.30
55424;BME280;41294;42.666;23.350;2023-04-21T01:38:11;94509.66;;;11.46;74.15
55424;BME280;41294;42.666;23.350;2023-04-21T01:40:37;94517.31;;;11.45;73.97
55424;BME280;41294;42.666;23.350;2023-04-21T01:43:03;94511.94;;;11.39;74.14
55424;BME280;41294;42.666;23.350;2023-04-21T01:45:30;94509.66;;;11.46;73.96
55424;BME280;41294;42.666;23.350;2023-04-21T01:47:55;94509.03;;;11.51;73.40
55424;BME280;41294;42.666;23.350;2023-04-21T01:50:20;94501.50;;;11.59;72.86
55424;BME280;41294;42.666;23.350;2023-04-21T01:52:46;94507.53;;;11.59;73.39
55424;BME280;41294;42.666;23.350;2023-04-21T01:55:11;94510.06;;;11.54;73.86
55424;BME280;41294;42.666;23.350;2023-04-21T01:57:37;94504.66;;;11.48;74.30
55424;BME280;41294;42.666;23.350;2023-04-21T02:00:03;94506.19;;;11.41;75.30
55424;BME280;41294;42.666;23.350;2023-04-21T02:02:29;94505.13;;;11.47;74.74
55424;BME280;41294;42.666;23.350;2023-04-21T02:04:54;94510.91;;;11.37;75.06
55424;BME280;41294;42.666;23.350;2023-04-21T02:07:19;94508.81;;;11.26;76.02
55424;BME280;41294;42.666;23.350;2023-04-21T02:09:45;94516.59;;;11.21;76.38
55424;BME280;41294;42.666;23.350;2023-04-21T02:12:10;94515.16;;;11.20;76.10
55424;BME280;41294;42.666;23.350;2023-04-21T02:14:36;94505.78;;;11.04;78.53
55424;BME280;41294;42.666;23.350;2023-04-21T02:17:02;94511.22;;;11.01;78.11
55424;BME280;41294;42.666;23.350;2023-04-21T02:19:28;94499.53;;;10.93;78.99
55424;BME280;41294;42.666;23.350;2023-04-21T02:21:53;94510.41;;;10.86;79.08
55424;BME280;41294;42.666;23.350;2023-04-21T02:24:18;94500.00;;;10.91;78.61
55424;BME280;41294;42.666;23.350;2023-04-21T02:26:44;94500.75;;;10.92;78.95
55424;BME280;41294;42.666;23.350;2023-04-21T02:29:09;94505.38;;;10.97;78.35
55424;BME280;41294;42.666;23.350;2023-04-21T02:31:35;94504.81;;;10.93;78.52
55424;BME280;41294;42.666;23.350;2023-04-21T02:34:00;94508.06;;;10.88;77.93
55424;BME280;41294;42.666;23.350;2023-04-21T02:36:26;94499.00;;;10.89;78.17
55424;BME280;41294;42.666;23.350;2023-04-21T02:38:51;94503.81;;;10.90;78.15
55424;BME280;41294;42.666;23.350;2023-04-21T02:41:16;94503.38;;;10.92;78.13
55424;BME280;41294;42.666;23.350;2023-04-21T02:43:42;94498.03;;;11.01;77.49
55424;BME280;41294;42.666;23.350;2023-04-21T02:46:07;94503.25;;;11.10;77.21
55424;BME280;41294;42.666;23.350;2023-04-21T02:48:36;94493.25;;;11.14;76.64
55424;BME280;41294;42.666;23.350;2023-04-21T02:51:02;94500.53;;;11.19;76.75
55424;BME280;41294;42.666;23.350;2023-04-21T02:53:28;94496.38;;;11.27;76.59
55424;BME280;41294;42.666;23.350;2023-04-21T02:55:53;94501.81;;;11.38;76.12
55424;BME280;41294;42.666;23.350;2023-04-21T02:58:19;94501.50;;;11.45;75.39
55424;BME280;41294;42.666;23.350;2023-04-21T03:00:45;94502.03;;;11.48;75.31
55424;BME280;41294;42.666;23.350;2023-04-21T03:03:10;94512.00;;;11.53;75.12
55424;BME280;41294;42.666;23.350;2023-04-21T03:05:35;94504.06;;;11.53;75.49
55424;BME280;41294;42.666;23.350;2023-04-21T03:08:01;94502.88;;;11.54;75.29
55424;BME280;41294;42.666;23.350;2023-04-21T03:10:26;94505.19;;;11.61;74.54
55424;BME280;41294;42.666;23.350;2023-04-21T03:12:52;94503.72;;;11.60;74.80
55424;BME280;41294;42.666;23.350;2023-04-21T03:15:18;94506.78;;;11.59;74.97
55424;BME280;41294;42.666;23.350;2023-04-21T03:17:43;94502.63;;;11.67;74.77
55424;BME280;41294;42.666;23.350;2023-04-21T03:20:09;94510.09;;;11.68;74.61
55424;BME280;41294;42.666;23.350;2023-04-21T03:22:36;94506.97;;;11.70;74.34
55424;BME280;41294;42.666;23.350;2023-04-21T03:25:02;94510.63;;;11.72;74.01
55424;BME280;41294;42.666;23.350;2023-04-21T03:27:29;94504.25;;;11.79;73.93
55424;BME280;41294;42.666;23.350;2023-04-21T03:29:55;94511.28;;;11.82;73.59
55424;BME280;41294;42.666;23.350;2023-04-21T03:32:20;94508.72;;;11.73;73.82
55424;BME280;41294;42.666;23.350;2023-04-21T03:34:45;94511.19;;;11.76;74.02
55424;BME280;41294;42.666;23.350;2023-04-21T03:37:11;94519.63;;;11.80;74.04
55424;BME280;41294;42.666;23.350;2023-04-21T03:39:36;94514.19;;;11.84;73.74
55424;BME280;41294;42.666;23.350;2023-04-21T03:42:02;94518.44;;;11.81;73.46
55424;BME280;41294;42.666;23.350;2023-04-21T03:44:29;94520.72;;;11.88;73.25
55424;BME280;41294;42.666;23.350;2023-04-21T03:46:55;94522.44;;;11.91;73.13
55424;BME280;41294;42.666;23.350;2023-04-21T03:49:21;94523.81;;;12.01;72.65
55424;BME280;41294;42.666;23.350;2023-04-21T03:51:47;94523.53;;;11.99;72.59
55424;BME280;41294;42.666;23.350;2023-04-21T03:54:12;94530.63;;;11.93;72.45
55424;BME280;41294;42.666;23.350;2023-04-21T03:56:38;94531.44;;;11.99;72.52
55424;BME280;41294;42.666;23.350;2023-04-21T03:59:03;94534.91;;;12.05;72.18
55424;BME280;41294;42.666;23.350;2023-04-21T04:01:29;94531.00;;;12.15;71.65
55424;BME280;41294;42.666;23.350;2023-04-21T04:03:54;94527.59;;;12.29;71.65
55424;BME280;41294;42.666;23.350;2023-04-21T04:06:20;94537.94;;;12.61;70.38
55424;BME280;41294;42.666;23.350;2023-04-21T04:08:45;94537.53;;;13.03;68.82
55424;BME280;41294;42.666;23.350;2023-04-21T04:11:10;94538.69;;;12.82;69.23
55424;BME280;41294;42.666;23.350;2023-04-21T04:13:36;94546.00;;;12.72;69.54
55424;BME280;41294;42.666;23.350;2023-04-21T04:16:01;94553.28;;;12.63;70.26
55424;BME280;41294;42.666;23.350;2023-04-21T04:18:27;94558.34;;;12.81;69.53
55424;BME280;41294;42.666;23.350;2023-04-21T04:20:52;94553.66;;;13.05;68.81
55424;BME280;41294;42.666;23.350;2023-04-21T04:23:17;94557.25;;;13.67;66.96
55424;BME280;41294;42.666;23.350;2023-04-21T04:25:43;94554.63;;;13.92;65.12
55424;BME280;41294;42.666;23.350;2023-04-21T04:28:10;94555.19;;;13.51;67.01
55424;BME280;41294;42.666;23.350;2023-04-21T04:30:36;94562.38;;;13.30;67.68
55424;BME280;41294;42.666;23.350;2023-04-21T04:33:02;94559.50;;;13.28;67.68
55424;BME280;41294;42.666;23.350;2023-04-21T04:35:27;94563.72;;;13.20;67.63
55424;BME280;41294;42.666;23.350;2023-04-21T04:37:53;94565.28;;;13.13;67.80
55424;BME280;41294;42.666;23.350;2023-04-21T04:40:19;94569.63;;;12.96;68.42
55424;BME280;41294;42.666;23.350;2023-04-21T04:42:44;94565.53;;;12.95;68.70
55424;BME280;41294;42.666;23.350;2023-04-21T04:45:11;94577.19;;;13.22;67.94
55424;BME280;41294;42.666;23.350;2023-04-21T04:47:38;94577.72;;;13.26;67.69
55424;BME280;41294;42.666;23.350;2023-04-21T04:50:04;94574.41;;;13.31;67.84
55424;BME280;41294;42.666;23.350;2023-04-21T04:52:30;94570.16;;;13.39;67.78
55424;BME280;41294;42.666;23.350;2023-04-21T04:54:55;94575.25;;;13.43;67.16
55424;BME280;41294;42.666;23.350;2023-04-21T04:57:21;94569.53;;;13.44;67.38
55424;BME280;41294;42.666;23.350;2023-04-21T04:59:46;94566.88;;;13.44;67.64
55424;BME280;41294;42.666;23.350;2023-04-21T05:02:11;94573.09;;;13.41;68.23
55424;BME280;41294;42.666;23.350;2023-04-21T05:04:37;94572.75;;;13.54;67.35
55424;BME280;41294;42.666;23.350;2023-04-21T05:07:03;94580.59;;;13.68;66.93
55424;BME280;41294;42.666;23.350;2023-04-21T05:09:30;94571.28;;;13.98;65.98
55424;BME280;41294;42.666;23.350;2023-04-21T05:11:56;94581.44;;;14.25;64.75
55424;BME280;41294;42.666;23.350;2023-04-21T05:14:21;94581.84;;;14.85;62.89
55424;BME280;41294;42.666;23.350;2023-04-21T05:16:47;94587.47;;;14.62;63.14
55424;BME280;41294;42.666;23.350;2023-04-21T05:19:12;94578.38;;;14.68;63.22
55424;BME280;41294;42.666;23.350;2023-04-21T05:21:37;94580.03;;;14.66;63.03
55424;BME280;41294;42.666;23.350;2023-04-21T05:24:03;94585.13;;;14.69;63.38
55424;BME280;41294;42.666;23.350;2023-04-21T05:26:28;94585.75;;;14.89;62.77
55424;BME280;41294;42.666;23.350;2023-04-21T05:28:55;94578.19;;;15.13;61.82
55424;BME280;41294;42.666;23.350;2023-04-21T05:31:21;94578.78;;;14.97;62.03
55424;BME280;41294;42.666;23.350;2023-04-21T05:33:47;94583.78;;;14.84;62.33
55424;BME280;41294;42.666;23.350;2023-04-21T05:36:12;94584.94;;;15.20;62.11
55424;BME280;41294;42.666;23.350;2023-04-21T05:38:38;94589.53;;;15.72;60.68
55424;BME280;41294;42.666;23.350;2023-04-21T05:41:04;94587.38;;;15.70;60.15
55424;BME280;41294;42.666;23.350;2023-04-21T05:43:30;94575.63;;;16.26;59.30
55424;BME280;41294;42.666;23.350;2023-04-21T05:46:02;94576.41;;;16.43;57.83
55424;BME280;41294;42.666;23.350;2023-04-21T05:48:27;94580.47;;;16.22;58.15
55424;BME280;41294;42.666;23.350;2023-04-21T05:50:53;94576.09;;;16.96;56.36
55424;BME280;41294;42.666;23.350;2023-04-21T05:53:21;94578.31;;;16.81;56.35
55424;BME280;41294;42.666;23.350;2023-04-21T05:55:47;94574.38;;;17.09;55.74
55424;BME280;41294;42.666;23.350;2023-04-21T05:58:13;94578.63;;;17.56;54.49
55424;BME280;41294;42.666;23.350;2023-04-21T06:00:39;94578.69;;;18.36;53.03
55424;BME280;41294;42.666;23.350;2023-04-21T06:03:04;94575.53;;;18.67;51.29
55424;BME280;41294;42.666;23.350;2023-04-21T06:05:31;94569.69;;;19.22;49.80
55424;BME280;41294;42.666;23.350;2023-04-21T06:07:56;94571.19;;;19.41;49.11
55424;BME280;41294;42.666;23.350;2023-04-21T06:10:21;94561.88;;;19.48;49.17
55424;BME280;41294;42.666;23.350;2023-04-21T06:12:47;94562.28;;;20.12;47.70
55424;BME280;41294;42.666;23.350;2023-04-21T06:15:12;94566.91;;;19.93;47.78
55424;BME280;41294;42.666;23.350;2023-04-21T06:17:37;94560.66;;;20.54;46.73
55424;BME280;41294;42.666;23.350;2023-04-21T06:20:03;94567.19;;;20.08;46.91
55424;BME280;41294;42.666;23.350;2023-04-21T06:22:29;94557.56;;;20.18;47.12
55424;BME280;41294;42.666;23.350;2023-04-21T06:24:54;94569.66;;;20.56;46.70
55424;BME280;41294;42.666;23.350;2023-04-21T06:27:19;94562.81;;;20.42;46.42
55424;BME280;41294;42.666;23.350;2023-04-21T06:29:45;94567.91;;;21.03;45.45
55424;BME280;41294;42.666;23.350;2023-04-21T06:32:11;94555.56;;;21.00;44.78
55424;BME280;41294;42.666;23.350;2023-04-21T06:34:37;94561.53;;;21.45;43.81
55424;BME280;41294;42.666;23.350;2023-04-21T06:37:02;94559.69;;;21.65;43.12
55424;BME280;41294;42.666;23.350;2023-04-21T06:39:29;94564.09;;;21.76;43.83
55424;BME280;41294;42.666;23.350;2023-04-21T06:41:54;94565.13;;;21.73;43.39
55424;BME280;41294;42.666;23.350;2023-04-21T06:44:22;94559.16;;;22.13;43.17
55424;BME280;41294;42.666;23.350;2023-04-21T06:46:47;94560.72;;;21.62;43.44
55424;BME280;41294;42.666;23.350;2023-04-21T06:49:13;94547.72;;;21.53;43.67
55424;BME280;41294;42.666;23.350;2023-04-21T06:51:38;94551.94;;;20.97;45.09
55424;BME280;41294;42.666;23.350;2023-04-21T06:54:03;94546.91;;;21.07;44.85
55424;BME280;41294;42.666;23.350;2023-04-21T06:56:30;94549.88;;;20.59;45.39
55424;BME280;41294;42.666;23.350;2023-04-21T06:58:56;94547.59;;;20.81;45.51
55424;BME280;41294;42.666;23.350;2023-04-21T07:01:22;94545.69;;;21.08;45.01
55424;BME280;41294;42.666;23.350;2023-04-21T07:03:51;94547.78;;;20.70;45.51
55424;BME280;41294;42.666;23.350;2023-04-21T07:06:17;94545.91;;;20.34;45.78
55424;BME280;41294;42.666;23.350;2023-04-21T07:08:42;94550.88;;;20.43;46.11
55424;BME280;41294;42.666;23.350;2023-04-21T07:11:07;94542.78;;;21.06;45.20
55424;BME280;41294;42.666;23.350;2023-04-21T07:13:33;94548.75;;;21.38;44.67
55424;BME280;41294;42.666;23.350;2023-04-21T07:15:58;94540.63;;;22.02;43.12
55424;BME280;41294;42.666;23.350;2023-04-21T07:18:24;94542.88;;;22.11;42.96
55424;BME280;41294;42.666;23.350;2023-04-21T07:20:49;94552.47;;;22.81;42.00
55424;BME280;41294;42.666;23.350;2023-04-21T07:23:15;94545.81;;;22.54;42.15
55424;BME280;41294;42.666;23.350;2023-04-21T07:25:41;94542.78;;;22.57;42.01
55424;BME280;41294;42.666;23.350;2023-04-21T07:28:06;94540.66;;;23.04;41.10
55424;BME280;41294;42.666;23.350;2023-04-21T07:30:32;94545.44;;;23.54;40.44
55424;BME280;41294;42.666;23.350;2023-04-21T07:32:57;94538.94;;;23.14;40.71
55424;BME280;41294;42.666;23.350;2023-04-21T07:35:23;94541.75;;;22.60;41.63
55424;BME280;41294;42.666;23.350;2023-04-21T07:37:49;94530.22;;;21.99;42.66
55424;BME280;41294;42.666;23.350;2023-04-21T07:40:14;94534.31;;;21.79;42.82
55424;BME280;41294;42.666;23.350;2023-04-21T07:42:40;94540.59;;;21.82;42.81
55424;BME280;41294;42.666;23.350;2023-04-21T07:45:05;94534.75;;;21.45;43.49
55424;BME280;41294;42.666;23.350;2023-04-21T07:47:31;94533.56;;;21.79;42.98
55424;BME280;41294;42.666;23.350;2023-04-21T07:49:57;94539.31;;;22.49;41.75
55424;BME280;41294;42.666;23.350;2023-04-21T07:52:23;94545.09;;;22.33;41.69
55424;BME280;41294;42.666;23.350;2023-04-21T07:54:48;94536.72;;;22.57;41.80
55424;BME280;41294;42.666;23.350;2023-04-21T07:57:14;94542.88;;;23.13;41.04
55424;BME280;41294;42.666;23.350;2023-04-21T07:59:40;94544.69;;;23.18;40.41
55424;BME280;41294;42.666;23.350;2023-04-21T08:02:07;94545.34;;;23.39;39.38
55424;BME280;41294;42.666;23.350;2023-04-21T08:04:33;94548.94;;;24.27;38.64
55424;BME280;41294;42.666;23.350;2023-04-21T08:06:58;94547.56;;;23.83;38.63
55424;BME280;41294;42.666;23.350;2023-04-21T08:09:24;94544.69;;;22.90;40.12
55424;BME280;41294;42.666;23.350;2023-04-21T08:11:49;94545.47;;;22.37;40.95
55424;BME280;41294;42.666;23.350;2023-04-21T08:14:14;94542.75;;;22.17;41.38
55424;BME280;41294;42.666;23.350;2023-04-21T08:16:40;94530.59;;;22.03;41.60
55424;BME280;41294;42.666;23.350;2023-04-21T08:19:07;94527.66;;;21.93;41.90
55424;BME280;41294;42.666;23.350;2023-04-21T08:21:32;94527.34;;;21.97;42.17
55424;BME280;41294;42.666;23.350;2023-04-21T08:23:58;94528.13;;;22.58;41.74
55424;BME280;41294;42.666;23.350;2023-04-21T08:26:25;94530.91;;;22.73;40.94
55424;BME280;41294;42.666;23.350;2023-04-21T08:28:51;94530.84;;;23.07;39.89
55424;BME280;41294;42.666;23.350;2023-04-21T08:31:18;94529.16;;;22.76;40.18
55424;BME280;41294;42.666;23.350;2023-04-21T08:33:44;94514.97;;;22.68;40.84
55424;BME280;41294;42.666;23.350;2023-04-21T08:36:10;94486.31;;;22.42;41.44
55424;BME280;41294;42.666;23.350;2023-04-21T08:38:36;94524.78;;;21.91;42.24
55424;BME280;41294;42.666;23.350;2023-04-21T08:41:03;94522.38;;;22.34;41.34
55424;BME280;41294;42.666;23.350;2023-04-21T08:43:28;94520.09;;;21.71;42.15
55424;BME280;41294;42.666;23.350;2023-04-21T08:45:55;94517.69;;;21.81;42.27
55424;BME280;41294;42.666;23.350;2023-04-21T08:48:21;94521.22;;;22.30;41.71
55424;BME280;41294;42.666;23.350;2023-04-21T08:50:51;94516.56;;;22.91;40.15
55424;BME280;41294;42.666;23.350;2023-04-21T08:53:18;94523.78;;;23.59;39.69
55424;BME280;41294;42.666;23.350;2023-04-21T08:55:44;94523.31;;;23.33;39.10
55424;BME280;41294;42.666;23.350;2023-04-21T08:58:12;94520.13;;;24.50;37.14
55424;BME280;41294;42.666;23.350;2023-04-21T09:00:38;94515.41;;;25.17;36.21
55424;BME280;41294;42.666;23.350;2023-04-21T09:03:05;94519.03;;;25.12;36.05
55424;BME280;41294;42.666;23.350;2023-04-21T09:05:33;94510.78;;;24.95;36.87
55424;BME280;41294;42.666;23.350;2023-04-21T09:08:13;94513.03;;;25.44;35.75
55424;BME280;41294;42.666;23.350;2023-04-21T09:10:48;94498.88;;;25.21;35.77
55424;BME280;41294;42.666;23.350;2023-04-21T09:13:14;94509.59;;;25.43;36.02
55424;BME280;41294;42.666;23.350;2023-04-21T09:15:46;94496.41;;;24.86;35.95
55424;BME280;41294;42.666;23.350;2023-04-21T09:18:20;94492.47;;;24.64;36.51
55424;BME280;41294;42.666;23.350;2023-04-21T09:20:48;94487.22;;;25.11;36.07
55424;BME280;41294;42.666;23.350;2023-04-21T09:23:14;94487.25;;;24.36;36.19
55424;BME280;41294;42.666;23.350;2023-04-21T09:25:41;94480.84;;;23.74;37.67
55424;BME280;41294;42.666;23.350;2023-04-21T09:28:11;94482.47;;;23.77;37.92
55424;BME280;41294;42.666;23.350;2023-04-21T09:30:38;94481.47;;;23.52;38.02
55424;BME280;41294;42.666;23.350;2023-04-21T09:33:03;94481.47;;;22.89;39.57
55424;BME280;41294;42.666;23.350;2023-04-21T09:35:34;94480.03;;;22.88;38.56
55424;BME280;41294;42.666;23.350;2023-04-21T09:38:02;94479.88;;;22.66;38.67
55424;BME280;41294;42.666;23.350;2023-04-21T09:40:31;94472.50;;;22.59;39.79
55424;BME280;41294;42.666;23.350;2023-04-21T09:42:56;94475.25;;;22.46;38.82
55424;BME280;41294;42.666;23.350;2023-04-21T09:45:25;94474.59;;;22.33;38.88
55424;BME280;41294;42.666;23.350;2023-04-21T09:47:54;94465.84;;;22.32;38.74
55424;BME280;41294;42.666;23.350;2023-04-21T09:50:21;94468.69;;;22.75;38.31
55424;BME280;41294;42.666;23.350;2023-04-21T09:52:52;94465.03;;;23.21;37.38
55424;BME280;41294;42.666;23.350;2023-04-21T09:55:19;94463.50;;;22.77;38.10
55424;BME280;41294;42.666;23.350;2023-04-21T09:57:46;94462.06;;;22.55;38.06
55424;BME280;41294;42.666;23.350;2023-04-21T10:00:16;94460.13;;;22.15;39.20
55424;BME280;41294;42.666;23.350;2023-04-21T10:02:52;94467.78;;;21.91;39.82
55424;BME280;41294;42.666;23.350;2023-04-21T10:05:18;94455.00;;;21.38;40.61
55424;BME280;41294;42.666;23.350;2023-04-21T10:07:46;94471.53;;;21.03;41.56
55424;BME280;41294;42.666;23.350;2023-04-21T10:10:18;94462.28;;;20.91;41.78
55424;BME280;41294;42.666;23.350;2023-04-21T10:12:45;94458.75;;;20.70;42.63
55424;BME280;41294;42.666;23.350;2023-04-21T10:15:39;94455.03;;;20.60;42.39
55424;BME280;41294;42.666;23.350;2023-04-21T10:18:11;94458.16;;;20.77;42.25
55424;BME280;41294;42.666;23.350;2023-04-21T10:21:01;94459.41;;;20.89;41.93
55424;BME280;41294;42.666;23.350;2023-04-21T10:23:42;94454.59;;;20.43;43.04
55424;BME280;41294;42.666;23.350;2023-04-21T10:26:18;94456.69;;;20.63;43.63
55424;BME280;41294;42.666;23.350;2023-04-21T10:29:27;94457.97;;;20.88;43.84
55424;BME280;41294;42.666;23.350;2023-04-21T10:31:53;94461.03;;;20.66;44.11
55424;BME280;41294;42.666;23.350;2023-04-21T10:34:29;94450.69;;;20.44;46.24
55424;BME280;41294;42.666;23.350;2023-04-21T10:39:29;94449.16;;;20.36;46.30
55424;BME280;41294;42.666;23.350;2023-04-21T10:42:23;94453.75;;;20.22;46.37
55424;BME280;41294;42.666;23.350;2023-04-21T10:49:55;94441.13;;;21.26;42.57
55424;BME280;41294;42.666;23.350;2023-04-21T10:52:21;94454.28;;;20.47;43.67
55424;BME280;41294;42.666;23.350;2023-04-21T10:57:14;94466.16;;;20.20;44.23
55424;BME280;41294;42.666;23.350;2023-04-21T10:59:40;94455.91;;;20.24;43.58
55424;BME280;41294;42.666;23.350;2023-04-21T11:02:07;94456.53;;;19.98;43.32
55424;BME280;41294;42.666;23.350;2023-04-21T11:04:35;94456.16;;;20.07;42.51
55424;BME280;41294;42.666;23.350;2023-04-21T11:07:24;94449.97;;;19.99;42.72
55424;BME280;41294;42.666;23.350;2023-04-21T11:09:59;94433.28;;;19.93;43.27
55424;BME280;41294;42.666;23.350;2023-04-21T11:12:30;94434.31;;;20.22;42.63
55424;BME280;41294;42.666;23.350;2023-04-21T11:14:56;94442.88;;;20.59;42.17
55424;BME280;41294;42.666;23.350;2023-04-21T11:17:22;94435.50;;;20.78;42.51
55424;BME280;41294;42.666;23.350;2023-04-21T11:19:51;94447.66;;;20.79;42.70
55424;BME280;41294;42.666;23.350;2023-04-21T11:22:18;94436.84;;;20.14;44.49
55424;BME280;41294;42.666;23.350;2023-04-21T11:24:47;94439.91;;;20.05;45.21
55424;BME280;41294;42.666;23.350;2023-04-21T11:27:14;94441.81;;;20.23;45.84
55424;BME280;41294;42.666;23.350;2023-04-21T11:29:40;94436.31;;;20.73;46.39
55424;BME280;41294;42.666;23.350;2023-04-21T11:32:07;94432.00;;;21.09;45.64
55424;BME280;41294;42.666;23.350;2023-04-21T11:34:35;94433.56;;;21.04;44.51
55424;BME280;41294;42.666;23.350;2023-04-21T11:37:00;94433.47;;;20.84;41.02
55424;BME280;41294;42.666;23.350;2023-04-21T11:39:27;94437.16;;;20.81;41.42
55424;BME280;41294;42.666;23.350;2023-04-21T11:41:52;94440.44;;;20.48;44.58
55424;BME280;41294;42.666;23.350;2023-04-21T11:44:36;94446.16;;;19.95;47.04
55424;BME280;41294;42.666;23.350;2023-04-21T11:47:27;94447.66;;;19.90;47.86
55424;BME280;41294;42.666;23.350;2023-04-21T11:49:57;94449.41;;;19.88;48.04
55424;BME280;41294;42.666;23.350;2023-04-21T11:52:28;94445.72;;;19.73;48.35
55424;BME280;41294;42.666;23.350;2023-04-21T11:54:58;94443.59;;;19.71;48.57
55424;BME280;41294;42.666;23.350;2023-04-21T11:57:25;94448.63;;;19.75;47.26
55424;BME280;41294;42.666;23.350;2023-04-21T11:59:51;94432.41;;;19.54;45.54
55424;BME280;41294;42.666;23.350;2023-04-21T12:02:24;94435.69;;;19.47;44.42
55424;BME280;41294;42.666;23.350;2023-04-21T12:05:07;94441.56;;;19.40;44.50
55424;BME280;41294;42.666;23.350;2023-04-21T12:07:43;94430.03;;;19.51;43.62
55424;BME280;41294;42.666;23.350;2023-04-21T12:10:09;94435.56;;;19.53;41.05
55424;BME280;41294;42.666;23.350;2023-04-21T12:12:37;94445.03;;;19.54;42.04
55424;BME280;41294;42.666;23.350;2023-04-21T12:15:07;94442.72;;;19.45;43.33
55424;BME280;41294;42.666;23.350;2023-04-21T12:17:52;94449.38;;;19.20;44.65
55424;BME280;41294;42.666;23.350;2023-04-21T12:20:22;94448.94;;;19.53;44.46
55424;BME280;41294;42.666;23.350;2023-04-21T12:22:49;94457.75;;;19.48;43.28
55424;BME280;41294;42.666;23.350;2023-04-21T12:25:15;94449.22;;;19.68;42.76
55424;BME280;41294;42.666;23.350;2023-04-21T12:27:57;94441.53;;;19.77;43.50
55424;BME280;41294;42.666;23.350;2023-04-21T12:30:23;94451.34;;;19.87;43.01
55424;BME280;41294;42.666;23.350;2023-04-21T12:32:48;94441.22;;;19.68;43.79
55424;BME280;41294;42.666;23.350;2023-04-21T12:35:16;94443.72;;;19.79;44.02
55424;BME280;41294;42.666;23.350;2023-04-21T12:37:43;94445.69;;;19.60;44.46
55424;BME280;41294;42.666;23.350;2023-04-21T12:40:08;94438.34;;;19.47;44.64
55424;BME280;41294;42.666;23.350;2023-04-21T12:42:34;94437.31;;;19.50;44.92
55424;BME280;41294;42.666;23.350;2023-04-21T12:45:01;94436.34;;;19.84;44.15
55424;BME280;41294;42.666;23.350;2023-04-21T12:47:26;94437.13;;;19.80;44.22
55424;BME280;41294;42.666;23.350;2023-04-21T12:49:51;94440.06;;;19.94;43.17
55424;BME280;41294;42.666;23.350;2023-04-21T12:52:17;94433.38;;;19.88;42.55
55424;BME280;41294;42.666;23.350;2023-04-21T12:54:43;94428.94;;;19.90;41.91
55424;BME280;41294;42.666;23.350;2023-04-21T12:57:09;94427.19;;;19.80;42.49
55424;BME280;41294;42.666;23.350;2023-04-21T12:59:34;94433.06;;;19.91;43.10